Time,TemperatureF,DewpointF,PressureIn,WindDirection,WindDirectionDegrees,WindSpeedMPH,WindSpeedGustMPH,Humidity,HourlyPrecipIn,Conditions,Clouds,dailyrainin,SoftwareType,DateUTC
2013-01-29 00:00:00,53.9,50.4,30.18,ESE,123,0.0,-999.0,88,0.00,,,0.00,Haskell-WGSend-v0.01,2013-01-29 06:00:00,
2013-01-29 00:05:00,53.7,50.5,30.18,ESE,123,0.0,-999.0,89,0.00,,,0.00,Haskell-WGSend-v0.01,2013-01-29 06:05:00,
2013-01-29 00:10:00,53.7,50.5,30.18,SE,124,0.0,-999.0,89,0.00,,,0.00,Haskell-WGSend-v0.01,2013-01-29 06:10:00,
2013-01-29 00:15:00,53.7,50.5,30.18,SE,124,0.0,-999.0,89,0.00,,,0.00,Haskell-WGSend-v0.01,2013-01-29 06:15:00,
2013-01-29 00:20:00,53.7,50.5,30.18,ESE,123,0.0,-999.0,89,0.00,,,0.00,Haskell-WGSend-v0.01,2013-01-29 06:20:00,
2013-01-29 00:25:00,53.7,50.5,30.18,ESE,123,0.0,-999.0,89,0.00,,,0.00,Haskell-WGSend-v0.01,2013-01-29 06:25:00,
2013-01-29 00:30:00,53.6,50.4,30.18,SE,125,5.0,-999.0,89,0.00,,,0.00,Haskell-WGSend-v0.01,2013-01-29 06:30:00,
2013-01-29 00:35:00,53.5,50.3,30.18,SE,125,0.0,-999.0,89,0.00,,,0.00,Haskell-WGSend-v0.01,2013-01-29 06:35:00,
2013-01-29 00:40:00,53.4,50.2,30.18,SE,125,0.0,-999.0,89,0.00,,,0.00,Haskell-WGSend-v0.01,2013-01-29 06:40:00,
2013-01-29 00:45:00,53.3,50.4,30.18,SE,125,0.0,-999.0,90,0.00,,,0.00,Haskell-WGSend-v0.01,2013-01-29 06:45:00,
2013-01-29 00:50:00,53.3,50.4,30.18,SE,125,0.0,-999.0,90,0.00,,,0.00,Haskell-WGSend-v0.01,2013-01-29 06:50:00,
2013-01-29 00:55:00,53.3,50.4,30.18,SE,125,0.0,-999.0,90,0.00,,,0.00,Haskell-WGSend-v0.01,2013-01-29 06:55:00,
2013-01-29 01:00:00,53.2,50.3,30.18,SE,125,0.0,-999.0,90,0.00,,,0.00,Haskell-WGSend-v0.01,2013-01-29 07:00:00,
2013-01-29 01:05:00,53.1,50.2,30.19,SE,125,0.0,-999.0,90,0.00,,,0.00,Haskell-WGSend-v0.01,2013-01-29 07:05:00,
2013-01-29 01:10:00,52.9,50.1,30.19,SE,125,0.0,-999.0,90,0.00,,,0.00,Haskell-WGSend-v0.01,2013-01-29 07:10:00,
2013-01-29 01:15:00,52.7,49.9,30.19,SE,125,0.0,-999.0,90,0.00,,,0.00,Haskell-WGSend-v0.01,2013-01-29 07:15:00,
2013-01-29 01:20:00,52.5,49.7,30.19,SE,125,0.0,-999.0,90,0.00,,,0.00,Haskell-WGSend-v0.01,2013-01-29 07:20:00,
2013-01-29 01:25:00,52.3,49.8,30.19,SE,125,0.0,-999.0,91,0.00,,,0.00,Haskell-WGSend-v0.01,2013-01-29 07:25:00,
2013-01-29 01:30:00,52.2,49.7,30.18,SE,125,1.0,-999.0,91,0.00,,,0.00,Haskell-WGSend-v0.01,2013-01-29 07:30:00,
2013-01-29 01:35:00,52.1,49.6,30.19,SE,125,0.0,-999.0,91,0.00,,,0.00,Haskell-WGSend-v0.01,2013-01-29 07:35:00,
2013-01-29 01:40:00,52.0,49.5,30.18,SE,125,0.0,-999.0,91,0.00,,,0.00,Haskell-WGSend-v0.01,2013-01-29 07:40:00,
2013-01-29 01:45:00,52.1,49.9,30.18,SE,125,0.0,-999.0,92,0.00,,,0.00,Haskell-WGSend-v0.01,2013-01-29 07:45:00,
2013-01-29 01:50:00,52.1,49.9,30.18,SE,125,0.0,-999.0,92,0.00,,,0.00,Haskell-WGSend-v0.01,2013-01-29 07:50:00,
2013-01-29 01:55:00,52.1,49.9,30.18,SE,125,0.0,-999.0,92,0.00,,,0.00,Haskell-WGSend-v0.01,2013-01-29 07:55:00,
2013-01-29 02:00:00,52.1,49.9,30.18,SE,125,0.0,-999.0,92,0.00,,,0.00,Haskell-WGSend-v0.01,2013-01-29 08:00:00,
2013-01-29 02:05:00,52.1,49.9,30.17,SE,125,0.0,-999.0,92,0.00,,,0.00,Haskell-WGSend-v0.01,2013-01-29 08:05:00,
2013-01-29 02:10:00,52.2,49.9,30.17,SE,125,0.0,-999.0,92,0.00,,,0.00,Haskell-WGSend-v0.01,2013-01-29 08:10:00,
2013-01-29 02:15:00,52.4,50.1,30.17,SE,125,1.0,-999.0,92,0.00,,,0.00,Haskell-WGSend-v0.01,2013-01-29 08:15:00,
2013-01-29 02:20:00,52.6,50.3,30.17,SE,125,0.0,-999.0,92,0.00,,,0.00,Haskell-WGSend-v0.01,2013-01-29 08:20:00,
2013-01-29 02:25:00,52.7,50.4,30.17,SE,124,2.0,-999.0,92,0.00,,,0.00,Haskell-WGSend-v0.01,2013-01-29 08:25:00,
2013-01-29 02:30:00,52.9,50.6,30.16,SE,124,0.0,-999.0,92,0.00,,,0.00,Haskell-WGSend-v0.01,2013-01-29 08:30:00,
2013-01-29 02:35:00,52.9,50.3,30.16,SE,124,1.0,-999.0,91,0.00,,,0.00,Haskell-WGSend-v0.01,2013-01-29 08:35:00,
2013-01-29 02:40:00,53.0,50.4,30.16,SE,124,0.0,-999.0,91,0.00,,,0.00,Haskell-WGSend-v0.01,2013-01-29 08:40:00,
2013-01-29 02:45:00,53.0,50.4,30.16,SE,124,0.0,-999.0,91,0.00,,,0.00,Haskell-WGSend-v0.01,2013-01-29 08:45:00,
2013-01-29 02:50:00,53.1,50.5,30.16,ESE,123,1.0,-999.0,91,0.00,,,0.00,Haskell-WGSend-v0.01,2013-01-29 08:50:00,
2013-01-29 02:55:00,53.2,50.6,30.16,SE,135,0.0,-999.0,91,0.00,,,0.00,Haskell-WGSend-v0.01,2013-01-29 08:55:00,
2013-01-29 03:00:00,53.3,50.7,30.16,SE,137,0.0,-999.0,91,0.00,,,0.00,Haskell-WGSend-v0.01,2013-01-29 09:00:00,
2013-01-29 03:05:00,53.3,50.7,30.16,SE,136,0.0,-999.0,91,0.00,,,0.00,Haskell-WGSend-v0.01,2013-01-29 09:05:00,
2013-01-29 03:10:00,53.4,50.5,30.16,ESE,105,1.0,-999.0,90,0.00,,,0.00,Haskell-WGSend-v0.01,2013-01-29 09:10:00,
2013-01-29 03:15:00,53.4,50.5,30.15,ESE,107,2.0,-999.0,90,0.00,,,0.00,Haskell-WGSend-v0.01,2013-01-29 09:15:00,
2013-01-29 03:20:00,53.4,50.5,30.15,ESE,110,0.0,-999.0,90,0.00,,,0.00,Haskell-WGSend-v0.01,2013-01-29 09:20:00,
2013-01-29 03:25:00,53.5,50.6,30.15,ESE,110,0.0,-999.0,90,0.00,,,0.00,Haskell-WGSend-v0.01,2013-01-29 09:25:00,
2013-01-29 03:30:00,53.6,50.7,30.15,ESE,109,1.0,-999.0,90,0.00,,,0.00,Haskell-WGSend-v0.01,2013-01-29 09:30:00,
2013-01-29 03:35:00,53.7,50.8,30.15,ESE,113,2.0,-999.0,90,0.00,,,0.00,Haskell-WGSend-v0.01,2013-01-29 09:35:00,
2013-01-29 03:40:00,53.9,51.0,30.14,ESE,115,0.0,-999.0,90,0.00,,,0.00,Haskell-WGSend-v0.01,2013-01-29 09:40:00,
2013-01-29 03:45:00,54.0,51.1,30.14,ESE,115,0.0,-999.0,90,0.00,,,0.00,Haskell-WGSend-v0.01,2013-01-29 09:45:00,
2013-01-29 03:50:00,54.1,51.2,30.14,ESE,116,1.0,-999.0,90,0.00,,,0.00,Haskell-WGSend-v0.01,2013-01-29 09:50:00,
2013-01-29 03:55:00,54.2,51.3,30.13,SE,128,4.0,-999.0,90,0.00,,,0.00,Haskell-WGSend-v0.01,2013-01-29 09:55:00,
2013-01-29 04:00:00,54.4,51.5,30.13,SE,128,0.0,-999.0,90,0.00,,,0.00,Haskell-WGSend-v0.01,2013-01-29 10:00:00,
2013-01-29 04:05:00,54.6,51.7,30.13,ESE,120,1.0,-999.0,90,0.00,,,0.00,Haskell-WGSend-v0.01,2013-01-29 10:05:00,
2013-01-29 04:10:00,54.7,51.8,30.12,East,101,1.0,-999.0,90,0.00,,,0.00,Haskell-WGSend-v0.01,2013-01-29 10:10:00,
2013-01-29 04:15:00,54.9,52.0,30.12,ESE,121,0.0,-999.0,90,0.00,,,0.00,Haskell-WGSend-v0.01,2013-01-29 10:15:00,
2013-01-29 04:20:00,55.0,52.1,30.12,ESE,122,0.0,-999.0,90,0.00,,,0.00,Haskell-WGSend-v0.01,2013-01-29 10:20:00,
2013-01-29 04:25:00,55.2,52.3,30.12,SE,126,0.0,-999.0,90,0.00,,,0.00,Haskell-WGSend-v0.01,2013-01-29 10:25:00,
2013-01-29 04:30:00,55.3,52.4,30.12,SE,126,0.0,-999.0,90,0.00,,,0.00,Haskell-WGSend-v0.01,2013-01-29 10:30:00,
2013-01-29 04:35:00,55.5,52.6,30.12,ESE,118,0.0,-999.0,90,0.00,,,0.00,Haskell-WGSend-v0.01,2013-01-29 10:35:00,
2013-01-29 04:40:00,55.6,52.7,30.12,SE,139,0.0,-999.0,90,0.00,,,0.00,Haskell-WGSend-v0.01,2013-01-29 10:40:00,
2013-01-29 04:45:00,55.7,52.8,30.12,SE,134,2.0,-999.0,90,0.00,,,0.00,Haskell-WGSend-v0.01,2013-01-29 10:45:00,
2013-01-29 04:50:00,55.8,52.9,30.12,SE,134,1.0,-999.0,90,0.00,,,0.00,Haskell-WGSend-v0.01,2013-01-29 10:50:00,
2013-01-29 04:55:00,55.9,53.0,30.11,SE,140,0.0,-999.0,90,0.00,,,0.00,Haskell-WGSend-v0.01,2013-01-29 10:55:00,
2013-01-29 05:00:00,56.0,53.1,30.11,SE,137,0.0,-999.0,90,0.00,,,0.00,Haskell-WGSend-v0.01,2013-01-29 11:00:00,
2013-01-29 05:05:00,56.1,53.2,30.11,SE,140,5.0,-999.0,90,0.00,,,0.00,Haskell-WGSend-v0.01,2013-01-29 11:05:00,
2013-01-29 05:10:00,56.2,53.3,30.11,SSE,149,0.0,-999.0,90,0.00,,,0.00,Haskell-WGSend-v0.01,2013-01-29 11:10:00,
2013-01-29 05:15:00,56.3,53.4,30.11,SSE,148,0.0,-999.0,90,0.00,,,0.00,Haskell-WGSend-v0.01,2013-01-29 11:15:00,
2013-01-29 05:25:00,56.5,53.6,30.11,SE,134,6.0,-999.0,90,0.00,,,0.00,Haskell-WGSend-v0.01,2013-01-29 11:25:00,
2013-01-29 05:30:00,56.6,53.7,30.11,SE,132,0.0,-999.0,90,0.00,,,0.00,Haskell-WGSend-v0.01,2013-01-29 11:30:00,
2013-01-29 05:35:00,56.7,53.8,30.10,SE,142,0.0,-999.0,90,0.00,,,0.00,Haskell-WGSend-v0.01,2013-01-29 11:35:00,
2013-01-29 05:40:00,56.7,53.8,30.10,SE,140,2.0,-999.0,90,0.00,,,0.00,Haskell-WGSend-v0.01,2013-01-29 11:40:00,
2013-01-29 05:45:00,56.6,53.7,30.10,SE,136,0.0,-999.0,90,0.00,,,0.00,Haskell-WGSend-v0.01,2013-01-29 11:45:00,
2013-01-29 05:50:00,56.6,53.7,30.10,SE,136,0.0,-999.0,90,0.00,,,0.00,Haskell-WGSend-v0.01,2013-01-29 11:50:00,
2013-01-29 05:55:00,56.6,53.7,30.10,SE,136,0.0,-999.0,90,0.00,,,0.00,Haskell-WGSend-v0.01,2013-01-29 11:55:00,
2013-01-29 06:00:00,56.5,53.6,30.10,SE,136,0.0,-999.0,90,0.00,,,0.00,Haskell-WGSend-v0.01,2013-01-29 12:00:00,
2013-01-29 06:05:00,56.5,53.6,30.10,SE,135,0.0,-999.0,90,0.00,,,0.00,Haskell-WGSend-v0.01,2013-01-29 12:05:00,
2013-01-29 06:10:00,56.4,53.5,30.10,SE,135,0.0,-999.0,90,0.00,,,0.00,Haskell-WGSend-v0.01,2013-01-29 12:10:00,
2013-01-29 06:15:00,56.4,53.5,30.10,SE,135,0.0,-999.0,90,0.00,,,0.00,Haskell-WGSend-v0.01,2013-01-29 12:15:00,
2013-01-29 06:20:00,56.4,53.5,30.10,SE,134,0.0,-999.0,90,0.00,,,0.00,Haskell-WGSend-v0.01,2013-01-29 12:20:00,
2013-01-29 06:25:00,56.4,53.5,30.11,SE,134,0.0,-999.0,90,0.00,,,0.00,Haskell-WGSend-v0.01,2013-01-29 12:25:00,
2013-01-29 06:30:00,56.4,53.5,30.11,SE,137,0.0,-999.0,90,0.00,,,0.00,Haskell-WGSend-v0.01,2013-01-29 12:30:00,
2013-01-29 06:35:00,56.6,54.0,30.12,SE,139,2.0,-999.0,91,0.00,,,0.00,Haskell-WGSend-v0.01,2013-01-29 12:35:00,
2013-01-29 06:40:00,56.7,54.1,30.12,SE,139,0.0,-999.0,91,0.00,,,0.00,Haskell-WGSend-v0.01,2013-01-29 12:40:00,
2013-01-29 06:45:00,56.8,54.2,30.12,South,181,0.0,-999.0,91,0.00,,,0.00,Haskell-WGSend-v0.01,2013-01-29 12:45:00,
2013-01-29 06:50:00,56.9,54.3,30.12,South,178,0.0,-999.0,91,0.00,,,0.00,Haskell-WGSend-v0.01,2013-01-29 12:50:00,
2013-01-29 06:55:00,57.1,54.5,30.12,South,178,0.0,-999.0,91,0.00,,,0.00,Haskell-WGSend-v0.01,2013-01-29 12:55:00,
2013-01-29 07:00:00,57.1,54.5,30.12,South,178,0.0,-999.0,91,0.00,,,0.00,Haskell-WGSend-v0.01,2013-01-29 13:00:00,
2013-01-29 07:05:00,57.2,54.6,30.12,South,178,0.0,-999.0,91,0.00,,,0.00,Haskell-WGSend-v0.01,2013-01-29 13:05:00,
2013-01-29 07:10:00,57.2,54.6,30.13,South,178,0.0,-999.0,91,0.00,,,0.00,Haskell-WGSend-v0.01,2013-01-29 13:10:00,
2013-01-29 07:15:00,57.3,54.7,30.13,South,178,0.0,-999.0,91,0.00,,,0.00,Haskell-WGSend-v0.01,2013-01-29 13:15:00,
2013-01-29 07:20:00,57.3,54.7,30.13,South,178,0.0,-999.0,91,0.00,,,0.00,Haskell-WGSend-v0.01,2013-01-29 13:20:00,
2013-01-29 07:25:00,57.3,54.7,30.13,South,178,0.0,-999.0,91,0.00,,,0.00,Haskell-WGSend-v0.01,2013-01-29 13:25:00,
2013-01-29 07:30:00,57.3,54.7,30.13,South,178,0.0,-999.0,91,0.00,,,0.00,Haskell-WGSend-v0.01,2013-01-29 13:30:00,
2013-01-29 07:35:00,57.4,54.8,30.13,South,178,0.0,-999.0,91,0.00,,,0.00,Haskell-WGSend-v0.01,2013-01-29 13:35:00,
2013-01-29 07:40:00,57.5,55.2,30.13,South,178,0.0,-999.0,92,0.00,,,0.00,Haskell-WGSend-v0.01,2013-01-29 13:40:00,
2013-01-29 07:45:00,57.7,55.4,30.13,South,178,0.0,-999.0,92,0.00,,,0.00,Haskell-WGSend-v0.01,2013-01-29 13:45:00,
2013-01-29 07:50:00,57.8,55.5,30.13,South,178,0.0,-999.0,92,0.00,,,0.00,Haskell-WGSend-v0.01,2013-01-29 13:50:00,
2013-01-29 07:55:00,58.0,55.7,30.13,South,171,1.0,-999.0,92,0.00,,,0.00,Haskell-WGSend-v0.01,2013-01-29 13:55:00,
2013-01-29 08:00:00,58.2,55.9,30.13,South,169,0.0,-999.0,92,0.00,,,0.00,Haskell-WGSend-v0.01,2013-01-29 14:00:00,
2013-01-29 08:05:00,58.4,56.4,30.12,SSE,161,0.0,-999.0,93,0.00,,,0.00,Haskell-WGSend-v0.01,2013-01-29 14:05:00,
2013-01-29 08:10:00,58.6,56.6,30.12,SSE,157,0.0,-999.0,93,0.00,,,0.00,Haskell-WGSend-v0.01,2013-01-29 14:10:00,
2013-01-29 08:15:00,58.8,56.8,30.12,South,180,3.0,-999.0,93,0.00,,,0.00,Haskell-WGSend-v0.01,2013-01-29 14:15:00,
2013-01-29 08:20:00,58.9,56.9,30.12,South,177,0.0,-999.0,93,0.00,,,0.00,Haskell-WGSend-v0.01,2013-01-29 14:20:00,
2013-01-29 08:30:00,59.1,57.1,30.12,South,171,0.0,-999.0,93,0.00,,,0.00,Haskell-WGSend-v0.01,2013-01-29 14:30:00,
2013-01-29 08:35:00,59.1,57.1,30.12,South,171,1.0,-999.0,93,0.00,,,0.00,Haskell-WGSend-v0.01,2013-01-29 14:35:00,
2013-01-29 08:40:00,59.2,57.2,30.11,South,170,0.0,-999.0,93,0.00,,,0.00,Haskell-WGSend-v0.01,2013-01-29 14:40:00,
2013-01-29 08:45:00,59.3,57.3,30.11,South,170,0.0,-999.0,93,0.00,,,0.00,Haskell-WGSend-v0.01,2013-01-29 14:45:00,
2013-01-29 08:50:00,59.4,57.1,30.11,SSE,168,0.0,-999.0,92,0.00,,,0.00,Haskell-WGSend-v0.01,2013-01-29 14:50:00,
2013-01-29 08:55:00,59.5,57.2,30.11,SSE,166,0.0,-999.0,92,0.00,,,0.00,Haskell-WGSend-v0.01,2013-01-29 14:55:00,
2013-01-29 09:00:00,59.6,57.3,30.11,SSE,163,4.0,-999.0,92,0.00,,,0.00,Haskell-WGSend-v0.01,2013-01-29 15:00:00,
2013-01-29 09:05:00,59.6,57.3,30.11,SE,132,6.0,-999.0,92,0.00,,,0.00,Haskell-WGSend-v0.01,2013-01-29 15:05:00,
2013-01-29 09:10:00,59.7,57.4,30.10,SE,140,4.0,-999.0,92,0.00,,,0.00,Haskell-WGSend-v0.01,2013-01-29 15:10:00,
2013-01-29 09:15:00,59.8,57.5,30.11,SSE,151,0.0,-999.0,92,0.00,,,0.00,Haskell-WGSend-v0.01,2013-01-29 15:15:00,
2013-01-29 09:20:00,60.0,57.7,30.10,SE,128,4.0,-999.0,92,0.00,,,0.00,Haskell-WGSend-v0.01,2013-01-29 15:20:00,
2013-01-29 09:25:00,60.2,57.9,30.10,SSE,150,4.0,-999.0,92,0.00,,,0.00,Haskell-WGSend-v0.01,2013-01-29 15:25:00,
2013-01-29 09:30:00,60.4,58.1,30.10,SSE,148,4.0,-999.0,92,0.00,,,0.00,Haskell-WGSend-v0.01,2013-01-29 15:30:00,
2013-01-29 09:35:00,60.5,58.2,30.10,South,183,2.0,-999.0,92,0.00,,,0.00,Haskell-WGSend-v0.01,2013-01-29 15:35:00,
2013-01-29 09:40:00,60.7,58.4,30.10,SSW,194,0.0,-999.0,92,0.00,,,0.00,Haskell-WGSend-v0.01,2013-01-29 15:40:00,
2013-01-29 09:45:00,60.8,58.2,30.09,South,191,3.0,-999.0,91,0.00,,,0.00,Haskell-WGSend-v0.01,2013-01-29 15:45:00,
2013-01-29 09:50:00,60.9,58.6,30.09,SSE,151,0.0,-999.0,92,0.00,,,0.00,Haskell-WGSend-v0.01,2013-01-29 15:50:00,
2013-01-29 09:55:00,61.0,58.7,30.09,SSE,167,2.0,-999.0,92,0.00,,,0.00,Haskell-WGSend-v0.01,2013-01-29 15:55:00,
2013-01-29 10:00:00,61.1,58.5,30.09,SSE,163,0.0,-999.0,91,0.00,,,0.00,Haskell-WGSend-v0.01,2013-01-29 16:00:00,
2013-01-29 10:05:00,61.2,58.6,30.09,SSE,159,2.0,-999.0,91,0.00,,,0.00,Haskell-WGSend-v0.01,2013-01-29 16:05:00,
2013-01-29 10:10:00,61.3,58.7,30.09,SSE,151,1.0,-999.0,91,0.00,,,0.00,Haskell-WGSend-v0.01,2013-01-29 16:10:00,
2013-01-29 10:15:00,61.4,58.8,30.09,South,172,1.0,-999.0,91,0.00,,,0.00,Haskell-WGSend-v0.01,2013-01-29 16:15:00,
2013-01-29 10:20:00,61.6,58.9,30.09,ESE,123,0.0,-999.0,91,0.00,,,0.00,Haskell-WGSend-v0.01,2013-01-29 16:20:00,
2013-01-29 10:30:00,61.7,59.0,30.09,SE,126,5.0,-999.0,91,0.00,,,0.00,Haskell-WGSend-v0.01,2013-01-29 16:30:00,
2013-01-29 10:35:00,61.8,58.8,30.08,South,187,0.0,-999.0,90,0.00,,,0.00,Haskell-WGSend-v0.01,2013-01-29 16:35:00,
2013-01-29 10:40:00,62.0,59.3,30.08,SSE,155,0.0,-999.0,91,0.00,,,0.00,Haskell-WGSend-v0.01,2013-01-29 16:40:00,
2013-01-29 10:45:00,62.1,59.4,30.08,South,183,2.0,-999.0,91,0.00,,,0.00,Haskell-WGSend-v0.01,2013-01-29 16:45:00,
2013-01-29 10:50:00,62.2,59.2,30.08,ESE,121,6.0,-999.0,90,0.00,,,0.00,Haskell-WGSend-v0.01,2013-01-29 16:50:00,
2013-01-29 10:55:00,62.3,59.3,30.07,SSE,152,0.0,-999.0,90,0.00,,,0.00,Haskell-WGSend-v0.01,2013-01-29 16:55:00,
2013-01-29 11:00:00,62.3,59.0,30.07,SSE,153,4.0,-999.0,89,0.00,,,0.00,Haskell-WGSend-v0.01,2013-01-29 17:00:00,
2013-01-29 11:05:00,62.2,58.9,30.07,SE,133,2.0,-999.0,89,0.00,,,0.00,Haskell-WGSend-v0.01,2013-01-29 17:05:00,
2013-01-29 11:10:00,62.2,58.9,30.06,SE,142,0.0,-999.0,89,0.00,,,0.00,Haskell-WGSend-v0.01,2013-01-29 17:10:00,
2013-01-29 11:15:00,62.2,58.9,30.06,ESE,109,0.0,-999.0,89,0.00,,,0.00,Haskell-WGSend-v0.01,2013-01-29 17:15:00,
2013-01-29 11:20:00,62.1,58.8,30.05,ESE,102,7.0,-999.0,89,0.00,,,0.00,Haskell-WGSend-v0.01,2013-01-29 17:20:00,
2013-01-29 11:25:00,62.2,58.9,30.04,ESE,106,4.0,-999.0,89,0.00,,,0.00,Haskell-WGSend-v0.01,2013-01-29 17:25:00,
2013-01-29 11:30:00,62.3,59.0,30.04,ESE,112,1.0,-999.0,89,0.00,,,0.00,Haskell-WGSend-v0.01,2013-01-29 17:30:00,
2013-01-29 11:35:00,62.6,59.3,30.04,South,172,4.0,-999.0,89,0.00,,,0.00,Haskell-WGSend-v0.01,2013-01-29 17:35:00,
2013-01-29 11:40:00,62.9,59.6,30.04,South,179,1.0,-999.0,89,0.00,,,0.00,Haskell-WGSend-v0.01,2013-01-29 17:40:00,
2013-01-29 11:45:00,63.2,59.9,30.03,SSE,166,7.0,-999.0,89,0.00,,,0.00,Haskell-WGSend-v0.01,2013-01-29 17:45:00,
2013-01-29 11:50:00,63.5,60.2,30.02,South,184,0.0,-999.0,89,0.00,,,0.00,Haskell-WGSend-v0.01,2013-01-29 17:50:00,
2013-01-29 11:55:00,63.9,60.6,30.02,South,180,0.0,-999.0,89,0.00,,,0.00,Haskell-WGSend-v0.01,2013-01-29 17:55:00,
2013-01-29 12:00:00,64.3,60.7,30.02,SSE,149,4.0,-999.0,88,0.00,,,0.00,Haskell-WGSend-v0.01,2013-01-29 18:00:00,
2013-01-29 12:05:00,64.6,60.6,30.02,SSE,160,0.0,-999.0,87,0.00,,,0.00,Haskell-WGSend-v0.01,2013-01-29 18:05:00,
2013-01-29 12:10:00,64.8,60.8,30.02,SSE,152,5.0,-999.0,87,0.00,,,0.00,Haskell-WGSend-v0.01,2013-01-29 18:10:00,
2013-01-29 12:15:00,64.8,60.8,30.02,SSE,154,2.0,-999.0,87,0.00,,,0.00,Haskell-WGSend-v0.01,2013-01-29 18:15:00,
2013-01-29 12:20:00,64.9,60.9,30.01,South,172,2.0,-999.0,87,0.00,,,0.00,Haskell-WGSend-v0.01,2013-01-29 18:20:00,
2013-01-29 12:25:00,64.9,60.6,30.01,SE,136,1.0,-999.0,86,0.00,,,0.00,Haskell-WGSend-v0.01,2013-01-29 18:25:00,
2013-01-29 12:30:00,64.7,60.4,30.00,SE,138,2.0,-999.0,86,0.00,,,0.00,Haskell-WGSend-v0.01,2013-01-29 18:30:00,
2013-01-29 12:35:00,64.6,60.3,30.00,SE,145,0.0,-999.0,86,0.00,,,0.00,Haskell-WGSend-v0.01,2013-01-29 18:35:00,
2013-01-29 12:40:00,64.5,60.2,29.99,SE,132,0.0,-999.0,86,0.00,,,0.00,Haskell-WGSend-v0.01,2013-01-29 18:40:00,
2013-01-29 12:45:00,64.5,60.2,29.99,SSE,152,6.0,-999.0,86,0.00,,,0.00,Haskell-WGSend-v0.01,2013-01-29 18:45:00,
2013-01-29 12:50:00,64.4,59.8,29.99,SSE,152,1.0,-999.0,85,0.00,,,0.00,Haskell-WGSend-v0.01,2013-01-29 18:50:00,
2013-01-29 12:55:00,64.3,59.7,29.99,SSE,152,1.0,-999.0,85,0.00,,,0.00,Haskell-WGSend-v0.01,2013-01-29 18:55:00,
2013-01-29 13:00:00,64.1,59.8,29.99,SE,146,0.0,-999.0,86,0.00,,,0.00,Haskell-WGSend-v0.01,2013-01-29 19:00:00,
2013-01-29 13:05:00,63.9,59.6,29.98,SE,145,2.0,-999.0,86,0.00,,,0.00,Haskell-WGSend-v0.01,2013-01-29 19:05:00,
2013-01-29 13:10:00,63.8,59.5,29.98,SE,145,0.0,-999.0,86,0.00,,,0.00,Haskell-WGSend-v0.01,2013-01-29 19:10:00,
2013-01-29 13:15:00,63.8,59.5,29.98,SE,135,0.0,-999.0,86,0.00,,,0.00,Haskell-WGSend-v0.01,2013-01-29 19:15:00,
2013-01-29 13:20:00,63.8,59.9,29.97,SE,135,0.0,-999.0,87,0.00,,,0.00,Haskell-WGSend-v0.01,2013-01-29 19:20:00,
2013-01-29 13:25:00,63.8,59.9,29.97,SE,135,0.0,-999.0,87,0.00,,,0.00,Haskell-WGSend-v0.01,2013-01-29 19:25:00,
2013-01-29 13:30:00,63.8,59.9,29.97,SE,135,0.0,-999.0,87,0.00,,,0.00,Haskell-WGSend-v0.01,2013-01-29 19:30:00,
2013-01-29 13:35:00,63.7,59.4,29.97,SE,124,0.0,-999.0,86,0.00,,,0.00,Haskell-WGSend-v0.01,2013-01-29 19:35:00,
2013-01-29 13:45:00,63.3,59.7,29.96,SE,132,4.0,-999.0,88,0.00,,,0.00,Haskell-WGSend-v0.01,2013-01-29 19:45:00,
2013-01-29 13:50:00,63.1,59.8,29.96,ESE,110,0.0,-999.0,89,0.00,,,0.00,Haskell-WGSend-v0.01,2013-01-29 19:50:00,
2013-01-29 13:55:00,62.8,59.8,29.96,SE,135,0.0,-999.0,90,0.00,,,0.00,Haskell-WGSend-v0.01,2013-01-29 19:55:00,
2013-01-29 14:00:00,62.5,59.5,29.96,SSE,161,0.0,-999.0,90,0.00,,,0.00,Haskell-WGSend-v0.01,2013-01-29 20:00:00,
2013-01-29 14:05:00,62.3,59.6,29.96,SE,128,1.0,-999.0,91,0.00,,,0.00,Haskell-WGSend-v0.01,2013-01-29 20:05:00,
2013-01-29 14:10:00,62.2,59.8,29.96,SE,132,0.0,-999.0,92,0.00,,,0.00,Haskell-WGSend-v0.01,2013-01-29 20:10:00,
2013-01-29 14:15:00,62.1,59.7,29.96,ESE,117,0.0,-999.0,92,0.00,,,0.00,Haskell-WGSend-v0.01,2013-01-29 20:15:00,
2013-01-29 14:25:00,62.1,59.7,29.95,SE,129,0.0,-999.0,92,0.00,,,0.00,Haskell-WGSend-v0.01,2013-01-29 20:25:00,
2013-01-29 14:30:00,62.1,60.1,29.95,ESE,123,1.0,-999.0,93,0.00,,,0.00,Haskell-WGSend-v0.01,2013-01-29 20:30:00,
2013-01-29 14:35:00,62.1,60.1,29.94,ESE,119,5.0,-999.0,93,0.00,,,0.00,Haskell-WGSend-v0.01,2013-01-29 20:35:00,
2013-01-29 14:40:00,62.1,60.1,29.93,SE,136,0.0,-999.0,93,0.00,,,0.00,Haskell-WGSend-v0.01,2013-01-29 20:40:00,
2013-01-29 14:45:00,62.1,60.1,29.94,SSE,154,1.0,-999.0,93,0.00,,,0.00,Haskell-WGSend-v0.01,2013-01-29 20:45:00,
2013-01-29 14:50:00,62.2,60.2,29.93,East,94,6.0,-999.0,93,0.00,,,0.00,Haskell-WGSend-v0.01,2013-01-29 20:50:00,
2013-01-29 14:55:00,62.3,60.3,29.93,SE,133,8.0,-999.0,93,0.00,,,0.00,Haskell-WGSend-v0.01,2013-01-29 20:55:00,
2013-01-29 15:00:00,62.5,60.4,29.93,SSE,164,10.0,-999.0,93,0.00,,,0.00,Haskell-WGSend-v0.01,2013-01-29 21:00:00,
2013-01-29 15:05:00,62.6,60.5,29.93,ESE,121,1.0,-999.0,93,0.00,,,0.00,Haskell-WGSend-v0.01,2013-01-29 21:05:00,
2013-01-29 15:10:00,62.7,60.6,29.93,SE,139,1.0,-999.0,93,0.00,,,0.00,Haskell-WGSend-v0.01,2013-01-29 21:10:00,
2013-01-29 15:15:00,62.9,60.5,29.93,ESE,113,1.0,-999.0,92,0.00,,,0.00,Haskell-WGSend-v0.01,2013-01-29 21:15:00,
2013-01-29 15:20:00,63.0,60.6,29.93,ESE,114,2.0,-999.0,92,0.00,,,0.00,Haskell-WGSend-v0.01,2013-01-29 21:20:00,
2013-01-29 15:25:00,63.1,60.7,29.92,SE,132,1.0,-999.0,92,0.00,,,0.00,Haskell-WGSend-v0.01,2013-01-29 21:25:00,
2013-01-29 15:35:00,63.4,61.0,29.92,SE,146,1.0,-999.0,92,0.00,,,0.00,Haskell-WGSend-v0.01,2013-01-29 21:35:00,
2013-01-29 15:40:00,63.7,61.3,29.91,SSE,155,1.0,-999.0,92,0.00,,,0.00,Haskell-WGSend-v0.01,2013-01-29 21:40:00,
2013-01-29 15:45:00,64.0,61.3,29.90,SE,146,0.0,-999.0,91,0.00,,,0.00,Haskell-WGSend-v0.01,2013-01-29 21:45:00,
2013-01-29 15:50:00,64.3,61.6,29.90,East,101,1.0,-999.0,91,0.00,,,0.00,Haskell-WGSend-v0.01,2013-01-29 21:50:00,
2013-01-29 15:55:00,64.6,61.6,29.90,SE,140,8.0,-999.0,90,0.00,,,0.00,Haskell-WGSend-v0.01,2013-01-29 21:55:00,
2013-01-29 16:00:00,64.9,61.9,29.90,South,186,5.0,-999.0,90,0.00,,,0.00,Haskell-WGSend-v0.01,2013-01-29 22:00:00,
2013-01-29 16:05:00,65.2,61.9,29.90,SSE,159,2.0,-999.0,89,0.00,,,0.00,Haskell-WGSend-v0.01,2013-01-29 22:05:00,
2013-01-29 16:10:00,65.4,62.1,29.90,SSW,194,1.0,-999.0,89,0.00,,,0.00,Haskell-WGSend-v0.01,2013-01-29 22:10:00,
2013-01-29 16:15:00,65.6,62.0,29.90,SSE,150,2.0,-999.0,88,0.00,,,0.00,Haskell-WGSend-v0.01,2013-01-29 22:15:00,
2013-01-29 16:20:00,65.7,62.0,29.90,SE,145,5.0,-999.0,88,0.00,,,0.00,Haskell-WGSend-v0.01,2013-01-29 22:20:00,
2013-01-29 16:25:00,65.9,62.2,29.90,SSE,166,2.0,-999.0,88,0.00,,,0.00,Haskell-WGSend-v0.01,2013-01-29 22:25:00,
2013-01-29 16:30:00,66.0,62.0,29.90,South,186,6.0,-999.0,87,0.00,,,0.00,Haskell-WGSend-v0.01,2013-01-29 22:30:00,
2013-01-29 16:35:00,66.1,62.1,29.90,South,177,4.0,-999.0,87,0.00,,,0.00,Haskell-WGSend-v0.01,2013-01-29 22:35:00,
2013-01-29 16:40:00,66.2,62.2,29.89,SSE,166,6.0,-999.0,87,0.00,,,0.00,Haskell-WGSend-v0.01,2013-01-29 22:40:00,
2013-01-29 16:45:00,66.3,62.3,29.90,South,181,0.0,-999.0,87,0.00,,,0.00,Haskell-WGSend-v0.01,2013-01-29 22:45:00,
2013-01-29 16:50:00,66.3,62.3,29.90,South,182,3.0,-999.0,87,0.00,,,0.00,Haskell-WGSend-v0.01,2013-01-29 22:50:00,
2013-01-29 16:55:00,66.4,62.1,29.90,SSE,148,6.0,-999.0,86,0.00,,,0.00,Haskell-WGSend-v0.01,2013-01-29 22:55:00,
2013-01-29 17:00:00,66.5,62.2,29.90,ESE,115,0.0,-999.0,86,0.00,,,0.00,Haskell-WGSend-v0.01,2013-01-29 23:00:00,
2013-01-29 17:10:00,66.7,62.4,29.90,SSE,166,0.0,-999.0,86,0.00,,,0.00,Haskell-WGSend-v0.01,2013-01-29 23:10:00,
2013-01-29 17:15:00,66.8,62.5,29.90,SSW,194,6.0,-999.0,86,0.00,,,0.00,Haskell-WGSend-v0.01,2013-01-29 23:15:00,
2013-01-29 17:20:00,66.9,62.2,29.91,South,175,0.0,-999.0,85,0.00,,,0.00,Haskell-WGSend-v0.01,2013-01-29 23:20:00,
2013-01-29 17:25:00,67.0,62.3,29.91,SSE,154,0.0,-999.0,85,0.00,,,0.00,Haskell-WGSend-v0.01,2013-01-29 23:25:00,
2013-01-29 17:30:00,67.0,62.3,29.90,SSE,152,1.0,-999.0,85,0.00,,,0.00,Haskell-WGSend-v0.01,2013-01-29 23:30:00,
2013-01-29 17:35:00,67.0,62.3,29.90,South,171,4.0,-999.0,85,0.00,,,0.00,Haskell-WGSend-v0.01,2013-01-29 23:35:00,
2013-01-29 17:40:00,67.1,62.4,29.91,South,169,4.0,-999.0,85,0.00,,,0.00,Haskell-WGSend-v0.01,2013-01-29 23:40:00,
2013-01-29 17:45:00,67.1,62.4,29.90,SSE,158,2.0,-999.0,85,0.00,,,0.00,Haskell-WGSend-v0.01,2013-01-29 23:45:00,
2013-01-29 17:50:00,67.1,62.4,29.90,SE,146,0.0,-999.0,85,0.00,,,0.00,Haskell-WGSend-v0.01,2013-01-29 23:50:00,
2013-01-29 17:55:00,67.2,62.5,29.90,SE,138,0.0,-999.0,85,0.00,,,0.00,Haskell-WGSend-v0.01,2013-01-29 23:55:00,
2013-01-29 18:00:00,67.2,62.5,29.90,South,169,4.0,-999.0,85,0.00,,,0.00,Haskell-WGSend-v0.01,2013-01-30 00:00:00,
2013-01-29 18:05:00,67.2,62.5,29.89,SSE,161,1.0,-999.0,85,0.00,,,0.00,Haskell-WGSend-v0.01,2013-01-30 00:05:00,
2013-01-29 18:10:00,67.2,62.5,29.89,SSE,152,1.0,-999.0,85,0.00,,,0.00,Haskell-WGSend-v0.01,2013-01-30 00:10:00,
2013-01-29 18:15:00,67.2,62.5,29.88,SE,134,0.0,-999.0,85,0.00,,,0.00,Haskell-WGSend-v0.01,2013-01-30 00:15:00,
2013-01-29 18:20:00,67.1,62.4,29.88,SSE,147,0.0,-999.0,85,0.00,,,0.00,Haskell-WGSend-v0.01,2013-01-30 00:20:00,
2013-01-29 18:25:00,67.1,62.4,29.88,South,169,0.0,-999.0,85,0.00,,,0.00,Haskell-WGSend-v0.01,2013-01-30 00:25:00,
2013-01-29 18:30:00,67.1,62.4,29.88,SE,134,4.0,-999.0,85,0.00,,,0.00,Haskell-WGSend-v0.01,2013-01-30 00:30:00,
2013-01-29 18:40:00,67.2,62.5,29.88,ESE,111,4.0,-999.0,85,0.00,,,0.00,Haskell-WGSend-v0.01,2013-01-30 00:40:00,
2013-01-29 18:45:00,67.2,62.5,29.88,SE,139,1.0,-999.0,85,0.00,,,0.00,Haskell-WGSend-v0.01,2013-01-30 00:45:00,
2013-01-29 18:50:00,67.2,62.5,29.88,ESE,117,0.0,-999.0,85,0.00,,,0.00,Haskell-WGSend-v0.01,2013-01-30 00:50:00,
2013-01-29 18:55:00,67.2,62.5,29.88,South,177,1.0,-999.0,85,0.00,,,0.00,Haskell-WGSend-v0.01,2013-01-30 00:55:00,
2013-01-29 19:05:00,67.1,62.4,29.88,SE,143,1.0,-999.0,85,0.00,,,0.00,Haskell-WGSend-v0.01,2013-01-30 01:05:00,
2013-01-29 19:10:00,67.0,62.3,29.88,SE,144,0.0,-999.0,85,0.00,,,0.00,Haskell-WGSend-v0.01,2013-01-30 01:10:00,
2013-01-29 19:15:00,66.9,62.2,29.87,SSE,148,0.0,-999.0,85,0.00,,,0.00,Haskell-WGSend-v0.01,2013-01-30 01:15:00,
2013-01-29 19:20:00,66.8,62.1,29.86,SE,140,0.0,-999.0,85,0.00,,,0.00,Haskell-WGSend-v0.01,2013-01-30 01:20:00,
2013-01-29 19:25:00,66.7,62.0,29.86,SSE,166,1.0,-999.0,85,0.00,,,0.00,Haskell-WGSend-v0.01,2013-01-30 01:25:00,
2013-01-29 19:30:00,66.5,61.9,29.87,SSE,153,0.0,-999.0,85,0.00,,,0.00,Haskell-WGSend-v0.01,2013-01-30 01:30:00,
2013-01-29 19:35:00,66.4,61.8,29.87,SSE,156,1.0,-999.0,85,0.00,,,0.00,Haskell-WGSend-v0.01,2013-01-30 01:35:00,
2013-01-29 19:40:00,66.3,61.7,29.87,SE,135,0.0,-999.0,85,0.00,,,0.00,Haskell-WGSend-v0.01,2013-01-30 01:40:00,
2013-01-29 19:45:00,66.2,61.6,29.86,SE,140,5.0,-999.0,85,0.00,,,0.00,Haskell-WGSend-v0.01,2013-01-30 01:45:00,
2013-01-29 19:50:00,66.1,61.5,29.86,SSE,149,0.0,-999.0,85,0.00,,,0.00,Haskell-WGSend-v0.01,2013-01-30 01:50:00,
2013-01-29 19:55:00,66.0,61.7,29.85,SSW,196,3.0,-999.0,86,0.00,,,0.00,Haskell-WGSend-v0.01,2013-01-30 01:55:00,
2013-01-29 20:00:00,66.0,61.7,29.85,SE,130,2.0,-999.0,86,0.00,,,0.00,Haskell-WGSend-v0.01,2013-01-30 02:00:00,
2013-01-29 20:05:00,66.0,61.7,29.84,SSE,167,4.0,-999.0,86,0.00,,,0.00,Haskell-WGSend-v0.01,2013-01-30 02:05:00,
2013-01-29 20:10:00,66.1,61.8,29.84,SE,140,5.0,-999.0,86,0.00,,,0.00,Haskell-WGSend-v0.01,2013-01-30 02:10:00,
2013-01-29 20:15:00,66.2,61.9,29.83,South,171,5.0,-999.0,86,0.00,,,0.00,Haskell-WGSend-v0.01,2013-01-30 02:15:00,
2013-01-29 20:20:00,66.2,61.9,29.83,SSE,163,4.0,-999.0,86,0.00,,,0.00,Haskell-WGSend-v0.01,2013-01-30 02:20:00,
2013-01-29 20:25:00,66.3,62.0,29.83,SE,146,0.0,-999.0,86,0.00,,,0.00,Haskell-WGSend-v0.01,2013-01-30 02:25:00,
2013-01-29 20:30:00,66.3,62.0,29.84,SSE,154,6.0,-999.0,86,0.00,,,0.00,Haskell-WGSend-v0.01,2013-01-30 02:30:00,
2013-01-29 20:35:00,66.5,62.2,29.84,WSW,245,5.0,-999.0,86,0.00,,,0.00,Haskell-WGSend-v0.01,2013-01-30 02:35:00,
2013-01-29 20:40:00,66.8,62.1,29.83,SE,128,8.0,-999.0,85,0.00,,,0.00,Haskell-WGSend-v0.01,2013-01-30 02:40:00,
2013-01-29 20:45:00,67.0,62.3,29.82,South,173,4.0,-999.0,85,0.00,,,0.00,Haskell-WGSend-v0.01,2013-01-30 02:45:00,
2013-01-29 20:50:00,67.2,62.5,29.82,SE,146,5.0,-999.0,85,0.00,,,0.00,Haskell-WGSend-v0.01,2013-01-30 02:50:00,
2013-01-29 20:55:00,67.4,62.7,29.81,South,179,6.0,-999.0,85,0.00,,,0.00,Haskell-WGSend-v0.01,2013-01-30 02:55:00,
2013-01-29 21:00:00,67.5,62.5,29.81,SSE,165,5.0,-999.0,84,0.00,,,0.00,Haskell-WGSend-v0.01,2013-01-30 03:00:00,
2013-01-29 21:05:00,67.6,62.9,29.81,SE,140,9.0,-999.0,85,0.00,,,0.00,Haskell-WGSend-v0.01,2013-01-30 03:05:00,
2013-01-29 21:10:00,67.7,62.7,29.80,East,98,6.0,-999.0,84,0.00,,,0.00,Haskell-WGSend-v0.01,2013-01-30 03:10:00,
2013-01-29 21:15:00,67.8,62.8,29.80,SSW,195,7.0,-999.0,84,0.00,,,0.00,Haskell-WGSend-v0.01,2013-01-30 03:15:00,
2013-01-29 21:20:00,67.8,62.8,29.80,SE,134,8.0,-999.0,84,0.00,,,0.00,Haskell-WGSend-v0.01,2013-01-30 03:20:00,
2013-01-29 21:25:00,67.9,62.9,29.80,South,180,8.0,-999.0,84,0.00,,,0.00,Haskell-WGSend-v0.01,2013-01-30 03:25:00,
2013-01-29 21:30:00,67.9,62.9,29.79,South,169,7.0,-999.0,84,0.00,,,0.00,Haskell-WGSend-v0.01,2013-01-30 03:30:00,
2013-01-29 21:35:00,67.8,62.8,29.79,SE,128,7.0,-999.0,84,0.00,,,0.00,Haskell-WGSend-v0.01,2013-01-30 03:35:00,
2013-01-29 21:40:00,67.8,62.8,29.79,SSE,155,5.0,-999.0,84,0.00,,,0.00,Haskell-WGSend-v0.01,2013-01-30 03:40:00,
2013-01-29 21:45:00,67.9,62.9,29.79,SE,144,7.0,-999.0,84,0.00,,,0.00,Haskell-WGSend-v0.01,2013-01-30 03:45:00,
2013-01-29 21:50:00,67.9,62.9,29.79,South,186,6.0,-999.0,84,0.00,,,0.00,Haskell-WGSend-v0.01,2013-01-30 03:50:00,
2013-01-29 21:55:00,68.1,63.1,29.80,SSE,155,6.0,-999.0,84,0.00,,,0.00,Haskell-WGSend-v0.01,2013-01-30 03:55:00,
2013-01-29 22:00:00,68.3,63.3,29.80,SSE,162,6.0,-999.0,84,0.00,,,0.00,Haskell-WGSend-v0.01,2013-01-30 04:00:00,
2013-01-29 22:05:00,68.4,63.0,29.79,South,174,5.0,-999.0,83,0.00,,,0.00,Haskell-WGSend-v0.01,2013-01-30 04:05:00,
2013-01-29 22:10:00,68.5,63.1,29.79,SSE,157,2.0,-999.0,83,0.00,,,0.00,Haskell-WGSend-v0.01,2013-01-30 04:10:00,
2013-01-29 22:15:00,68.6,63.2,29.79,South,186,4.0,-999.0,83,0.00,,,0.00,Haskell-WGSend-v0.01,2013-01-30 04:15:00,
2013-01-29 22:20:00,68.6,63.2,29.79,South,190,3.0,-999.0,83,0.00,,,0.00,Haskell-WGSend-v0.01,2013-01-30 04:20:00,
2013-01-29 22:25:00,68.7,63.3,29.79,SSW,197,7.0,-999.0,83,0.00,,,0.00,Haskell-WGSend-v0.01,2013-01-30 04:25:00,
2013-01-29 22:30:00,68.7,63.3,29.79,SSE,158,6.0,-999.0,83,0.00,,,0.00,Haskell-WGSend-v0.01,2013-01-30 04:30:00,
2013-01-29 22:35:00,68.7,63.3,29.79,SE,144,4.0,-999.0,83,0.00,,,0.00,Haskell-WGSend-v0.01,2013-01-30 04:35:00,
2013-01-29 22:40:00,68.8,63.1,29.79,SE,138,4.0,-999.0,82,0.00,,,0.00,Haskell-WGSend-v0.01,2013-01-30 04:40:00,
2013-01-29 22:45:00,68.9,63.2,29.78,South,177,7.0,-999.0,82,0.00,,,0.00,Haskell-WGSend-v0.01,2013-01-30 04:45:00,
2013-01-29 22:50:00,68.9,63.2,29.77,SSE,157,6.0,-999.0,82,0.00,,,0.00,Haskell-WGSend-v0.01,2013-01-30 04:50:00,
2013-01-29 22:55:00,69.0,63.3,29.77,SSE,148,7.0,-999.0,82,0.00,,,0.00,Haskell-WGSend-v0.01,2013-01-30 04:55:00,
2013-01-29 23:00:00,69.1,63.4,29.77,SE,124,16.0,-999.0,82,0.00,,,0.00,Haskell-WGSend-v0.01,2013-01-30 05:00:00,
2013-01-29 23:05:00,69.1,63.4,29.77,South,176,1.0,-999.0,82,0.00,,,0.00,Haskell-WGSend-v0.01,2013-01-30 05:05:00,
2013-01-29 23:10:00,69.2,63.5,29.75,SSE,165,7.0,-999.0,82,0.00,,,0.00,Haskell-WGSend-v0.01,2013-01-30 05:10:00,
2013-01-29 23:15:00,69.2,63.5,29.75,South,186,4.0,-999.0,82,0.00,,,0.00,Haskell-WGSend-v0.01,2013-01-30 05:15:00,
2013-01-29 23:25:00,69.2,63.5,29.74,SSE,159,2.0,-999.0,82,0.00,,,0.00,Haskell-WGSend-v0.01,2013-01-30 05:25:00,
2013-01-29 23:30:00,69.1,63.4,29.74,SSE,168,1.0,-999.0,82,0.00,,,0.00,Haskell-WGSend-v0.01,2013-01-30 05:30:00,
2013-01-29 23:35:00,69.0,63.3,29.74,SSE,167,2.0,-999.0,82,0.00,,,0.00,Haskell-WGSend-v0.01,2013-01-30 05:35:00,
2013-01-29 23:40:00,69.1,63.4,29.74,SSE,161,6.0,-999.0,82,0.00,,,0.00,Haskell-WGSend-v0.01,2013-01-30 05:40:00,
2013-01-29 23:45:00,69.2,63.5,29.73,SSW,207,3.0,-999.0,82,0.00,,,0.00,Haskell-WGSend-v0.01,2013-01-30 05:45:00,
2013-01-29 23:50:00,69.3,63.6,29.73,ESE,122,6.0,-999.0,82,0.00,,,0.00,Haskell-WGSend-v0.01,2013-01-30 05:50:00,
2013-01-29 23:55:00,69.3,63.2,29.73,SSE,151,6.0,-999.0,81,0.00,,,0.00,Haskell-WGSend-v0.01,2013-01-30 05:55:00,